Time;durP1;ratioP1;P1;durP2;ratioP2;P2;SDS_P1;SDS_P2;PMS_P1;PMS_P2;Temp;Humidity;BMP_temperature;BMP_pressure;BME280_temperature;BME280_humidity;BME280_pressure;Samples;Min_cycle;Max_cycle;Signal;HPM_P1;HPM_P2
2023/03/01 00:03:11;;;;;;;14.27;8.00;;;;;;;;;;10383519;28;20409;-86
2023/03/01 00:08:13;;;;;;;14.60;8.33;;;;;;;;;;10394035;28;20486;-86
2023/03/01 00:13:15;;;;;;;13.65;7.68;;;;;;;;;;10394883;28;20431;-86
2023/03/01 00:18:18;;;;;;;14.25;7.78;;;;;;;;;;10382864;28;20401;-86
2023/03/01 00:23:20;;;;;;;13.57;7.53;;;;;;;;;;10391036;28;20502;-85
2023/03/01 00:28:22;;;;;;;12.32;6.95;;;;;;;;;;10388873;28;20457;-86
2023/03/01 00:33:25;;;;;;;11.38;7.10;;;;;;;;;;10391020;28;20432;-86
2023/03/01 00:38:27;;;;;;;11.90;7.17;;;;;;;;;;10386772;28;20461;-86
2023/03/01 00:43:29;;;;;;;12.07;7.70;;;;;;;;;;10384453;28;20426;-85
2023/03/01 00:48:32;;;;;;;11.70;7.90;;;;;;;;;;10388601;28;20413;-86
2023/03/01 00:53:35;;;;;;;12.30;8.05;;;;;;;;;;10389025;28;20463;-87
2023/03/01 00:58:37;;;;;;;15.32;7.90;;;;;;;;;;10384526;28;20422;-86
2023/03/01 01:03:40;;;;;;;12.63;8.10;;;;;;;;;;10398810;28;20403;-86
2023/03/01 01:08:42;;;;;;;12.27;7.33;;;;;;;;;;10390308;28;20926;-86
2023/03/01 01:13:45;;;;;;;12.50;7.43;;;;;;;;;;10383789;28;20507;-86
2023/03/01 01:18:49;;;;;;;12.48;7.38;;;;;;;;;;10395282;28;20465;-86
2023/03/01 01:23:51;;;;;;;13.80;7.30;;;;;;;;;;10385266;28;20414;-84
2023/03/01 01:28:54;;;;;;;12.43;7.97;;;;;;;;;;10384624;28;20449;-86
2023/03/01 01:33:58;;;;;;;12.45;7.47;;;;;;;;;;10378797;28;20533;-85
2023/03/01 01:39:00;;;;;;;14.03;8.17;;;;;;;;;;10382456;28;20415;-86
2023/03/01 01:44:14;;;;;;;11.98;7.95;;;;;;;;;;10380815;28;20401;-85
2023/03/01 01:49:37;;;;;;;11.52;7.65;;;;;;;;;;10391604;28;20449;-86
2023/03/01 01:54:44;;;;;;;13.60;7.87;;;;;;;;;;10388410;28;20511;-85
2023/03/01 01:59:51;;;;;;;14.60;8.10;;;;;;;;;;10392057;28;20783;-85
2023/03/01 02:05:11;;;;;;;13.00;7.68;;;;;;;;;;10378400;28;20489;-87
2023/03/01 02:10:13;;;;;;;12.87;7.30;;;;;;;;;;10379269;28;20438;-86
2023/03/01 02:15:15;;;;;;;12.33;6.83;;;;;;;;;;10395694;28;20419;-86
2023/03/01 02:20:28;;;;;;;12.90;8.00;;;;;;;;;;10390110;28;20494;-86
2023/03/01 02:25:37;;;;;;;12.47;7.50;;;;;;;;;;10387608;28;20962;-86
2023/03/01 02:31:41;;;;;;;12.13;7.03;;;;;;;;;;10378804;28;20501;-86
2023/03/01 02:36:07;;;;;;;12.27;7.40;;;;;;;;;;10384640;28;20475;-87
2023/03/01 02:41:10;;;;;;;10.95;6.90;;;;;;;;;;10377608;28;20918;-86
2023/03/01 02:46:18;;;;;;;11.05;6.60;;;;;;;;;;10389233;28;20419;-85
2023/03/01 02:51:31;;;;;;;10.47;6.63;;;;;;;;;;10392815;28;20504;-86
2023/03/01 02:56:33;;;;;;;9.32;6.32;;;;;;;;;;10389668;28;20467;-87
2023/03/01 03:01:39;;;;;;;10.20;6.10;;;;;;;;;;10376613;28;20419;-85
2023/03/01 03:06:41;;;;;;;10.23;6.50;;;;;;;;;;10389761;28;20885;-86
2023/03/01 03:11:44;;;;;;;9.98;5.88;;;;;;;;;;10390529;28;20484;-86
2023/03/01 03:16:49;;;;;;;10.07;5.95;;;;;;;;;;10388027;28;20443;-86
2023/03/01 03:21:50;;;;;;;9.73;5.88;;;;;;;;;;10380732;28;21099;-86
2023/03/01 03:26:53;;;;;;;9.85;6.03;;;;;;;;;;10380815;28;20407;-86
2023/03/01 03:31:56;;;;;;;8.13;5.30;;;;;;;;;;10399039;28;20491;-86
2023/03/01 03:36:59;;;;;;;10.55;5.95;;;;;;;;;;10385757;28;20414;-86
2023/03/01 03:42:01;;;;;;;8.70;5.22;;;;;;;;;;10398627;28;20816;-85
2023/03/01 03:47:04;;;;;;;10.82;5.68;;;;;;;;;;10386090;28;20442;-85
2023/03/01 03:52:13;;;;;;;9.13;5.60;;;;;;;;;;10389416;28;20430;-86
2023/03/01 03:57:15;;;;;;;9.38;5.72;;;;;;;;;;10390769;28;20411;-85
2023/03/01 04:02:21;;;;;;;10.70;5.80;;;;;;;;;;10389056;28;20405;-86
2023/03/01 04:07:23;;;;;;;8.40;5.22;;;;;;;;;;10389442;28;20441;-86
2023/03/01 04:12:25;;;;;;;10.05;5.50;;;;;;;;;;10392068;28;20848;-86
2023/03/01 04:17:29;;;;;;;9.13;5.65;;;;;;;;;;10386088;28;20438;-85
2023/03/01 04:22:31;;;;;;;9.60;5.80;;;;;;;;;;10383001;28;20441;-86
2023/03/01 04:27:34;;;;;;;8.93;5.57;;;;;;;;;;10386494;28;20411;-85
2023/03/01 04:32:37;;;;;;;7.72;5.05;;;;;;;;;;10405352;28;20429;-86
2023/03/01 04:37:41;;;;;;;8.53;5.30;;;;;;;;;;10386238;28;20843;-86
2023/03/01 04:42:43;;;;;;;7.73;4.77;;;;;;;;;;10390329;28;20448;-85
2023/03/01 04:47:47;;;;;;;8.13;4.90;;;;;;;;;;10389193;28;20410;-86
2023/03/01 04:52:49;;;;;;;7.40;4.90;;;;;;;;;;10396310;28;20421;-86
2023/03/01 04:57:51;;;;;;;8.35;4.90;;;;;;;;;;10379542;28;20465;-86
2023/03/01 05:02:56;;;;;;;10.20;4.80;;;;;;;;;;10386621;28;20421;-86
2023/03/01 05:08:00;;;;;;;10.45;4.45;;;;;;;;;;10393178;28;20405;-86
2023/03/01 05:13:04;;;;;;;8.73;4.00;;;;;;;;;;10394790;28;20504;-86
2023/03/01 05:18:11;;;;;;;5.53;4.00;;;;;;;;;;10387931;28;20465;-85
2023/03/01 05:23:12;;;;;;;7.03;3.63;;;;;;;;;;10389474;28;20406;-86
2023/03/01 05:28:14;;;;;;;7.00;3.80;;;;;;;;;;10381562;28;20409;-86
2023/03/01 05:33:18;;;;;;;6.03;3.70;;;;;;;;;;10384809;28;20419;-86
2023/03/01 05:38:22;;;;;;;6.73;3.83;;;;;;;;;;10379179;28;20820;-86
2023/03/01 05:43:24;;;;;;;5.93;3.83;;;;;;;;;;10381751;28;20418;-85
2023/03/01 05:48:27;;;;;;;7.85;4.90;;;;;;;;;;10374554;28;20508;-85
2023/03/01 05:53:29;;;;;;;7.18;4.07;;;;;;;;;;10381483;28;20522;-85
2023/03/01 05:58:31;;;;;;;7.17;4.30;;;;;;;;;;10377629;28;20492;-83
2023/03/01 06:03:34;;;;;;;7.53;4.47;;;;;;;;;;10374577;28;20407;-84
2023/03/01 06:08:37;;;;;;;9.13;5.70;;;;;;;;;;10368076;28;20500;-84
2023/03/01 06:13:38;;;;;;;10.07;6.10;;;;;;;;;;10358279;28;20435;-84
2023/03/01 06:18:42;;;;;;;9.30;5.97;;;;;;;;;;10358001;28;20489;-84
2023/03/01 06:23:44;;;;;;;8.65;5.63;;;;;;;;;;10359673;28;20410;-83
2023/03/01 06:28:46;;;;;;;7.78;4.90;;;;;;;;;;10376048;28;20429;-85
2023/03/01 06:45:43;;;;;;;7.32;4.93;;;;;;;;;;10749810;23;20421;-82
2023/03/01 06:50:45;;;;;;;10.30;5.78;;;;;;;;;;10384760;28;20403;-81
2023/03/01 06:55:46;;;;;;;9.60;5.50;;;;;;;;;;10392935;28;20870;-82
2023/03/01 07:00:50;;;;;;;12.30;5.95;;;;;;;;;;10397422;28;20417;-81
2023/03/01 07:05:52;;;;;;;12.23;6.13;;;;;;;;;;10399384;28;20439;-84
2023/03/01 07:10:56;;;;;;;12.30;7.47;;;;;;;;;;10395813;28;20437;-83
2023/03/01 07:16:00;;;;;;;15.25;7.97;;;;;;;;;;10401773;28;20428;-83
2023/03/01 07:21:05;;;;;;;11.93;7.30;;;;;;;;;;10392804;28;20411;-84
2023/03/01 07:26:07;;;;;;;12.23;7.38;;;;;;;;;;10399981;28;20425;-83
2023/03/01 07:31:10;;;;;;;11.10;7.50;;;;;;;;;;10396267;28;20509;-84
2023/03/01 07:36:12;;;;;;;15.75;8.77;;;;;;;;;;10393789;28;20421;-84
2023/03/01 07:41:15;;;;;;;13.88;8.55;;;;;;;;;;10394518;28;20437;-84
2023/03/01 07:46:19;;;;;;;12.43;7.63;;;;;;;;;;10392605;28;20437;-84
2023/03/01 07:51:20;;;;;;;13.20;8.25;;;;;;;;;;10393853;28;20396;-84
2023/03/01 07:56:22;;;;;;;11.45;7.20;;;;;;;;;;10398794;28;20407;-84
2023/03/01 08:01:26;;;;;;;10.48;6.97;;;;;;;;;;10399301;28;20440;-83
2023/03/01 08:06:28;;;;;;;12.52;7.22;;;;;;;;;;10395910;28;20501;-84
2023/03/01 08:11:30;;;;;;;12.20;6.97;;;;;;;;;;10391689;28;20507;-84
2023/03/01 08:16:35;;;;;;;9.52;5.70;;;;;;;;;;10403231;28;20479;-84
2023/03/01 08:21:37;;;;;;;7.25;4.75;;;;;;;;;;10395213;28;20502;-84
2023/03/01 08:26:39;;;;;;;7.00;4.20;;;;;;;;;;10394902;28;20938;-84
2023/03/01 08:31:42;;;;;;;6.88;4.00;;;;;;;;;;10400916;28;20401;-83
2023/03/01 08:36:45;;;;;;;7.07;3.53;;;;;;;;;;10397122;28;20962;-84
2023/03/01 08:41:47;;;;;;;6.55;3.78;;;;;;;;;;10397970;28;20570;-84
2023/03/01 08:46:52;;;;;;;6.00;3.60;;;;;;;;;;10393811;28;20424;-83
2023/03/01 08:51:54;;;;;;;6.15;3.75;;;;;;;;;;10392512;28;20897;-84
2023/03/01 08:56:58;;;;;;;5.80;3.50;;;;;;;;;;10404127;28;20413;-84
2023/03/01 09:02:02;;;;;;;10.80;4.88;;;;;;;;;;10399748;28;20494;-84
2023/03/01 09:07:03;;;;;;;6.63;3.83;;;;;;;;;;10401417;28;20535;-84
2023/03/01 09:12:06;;;;;;;6.93;3.80;;;;;;;;;;10393740;28;20976;-84
2023/03/01 09:17:09;;;;;;;6.55;3.97;;;;;;;;;;10399480;28;20483;-84
2023/03/01 09:22:11;;;;;;;6.80;3.60;;;;;;;;;;10391875;28;20537;-84
2023/03/01 09:27:14;;;;;;;6.65;3.80;;;;;;;;;;10393178;28;20405;-83
2023/03/01 09:32:17;;;;;;;7.50;4.18;;;;;;;;;;10398480;28;20467;-83
2023/03/01 09:37:19;;;;;;;6.03;3.90;;;;;;;;;;10402038;28;20444;-84
2023/03/01 09:42:21;;;;;;;8.30;4.18;;;;;;;;;;10386418;28;20469;-84
2023/03/01 09:47:28;;;;;;;7.35;3.58;;;;;;;;;;10382897;28;20399;-84
2023/03/01 09:52:37;;;;;;;6.20;3.72;;;;;;;;;;10379313;28;20525;-84
2023/03/01 09:57:46;;;;;;;5.97;3.60;;;;;;;;;;10388212;28;20869;-84
2023/03/01 10:02:53;;;;;;;7.47;4.05;;;;;;;;;;10394358;28;20462;-84
2023/03/01 10:08:15;;;;;;;7.65;3.30;;;;;;;;;;10400524;28;20480;-84
2023/03/01 10:13:20;;;;;;;6.38;3.70;;;;;;;;;;10393051;28;20430;-85
2023/03/01 10:18:27;;;;;;;9.10;3.67;;;;;;;;;;10387403;28;20766;-85
2023/03/01 10:23:32;;;;;;;8.20;3.95;;;;;;;;;;10386791;28;20813;-83
2023/03/01 10:28:45;;;;;;;5.47;3.50;;;;;;;;;;10395163;28;21071;-84
2023/03/01 10:33:54;;;;;;;8.27;3.47;;;;;;;;;;10390970;28;20425;-84
2023/03/01 10:38:59;;;;;;;12.03;3.80;;;;;;;;;;10389061;28;20429;-84
2023/03/01 10:44:01;;;;;;;10.90;4.35;;;;;;;;;;10388410;28;20417;-84
2023/03/01 10:49:16;;;;;;;8.05;4.10;;;;;;;;;;10385565;28;20464;-85
2023/03/01 10:54:20;;;;;;;8.35;4.38;;;;;;;;;;10388297;28;20499;-85
2023/03/01 10:59:33;;;;;;;6.53;4.28;;;;;;;;;;10377905;28;20421;-85
2023/03/01 11:04:36;;;;;;;6.80;3.70;;;;;;;;;;10388173;28;20453;-85
2023/03/01 11:09:38;;;;;;;11.77;3.83;;;;;;;;;;10376638;28;20534;-85
2023/03/01 11:14:48;;;;;;;8.00;3.70;;;;;;;;;;10383517;28;20421;-85
2023/03/01 11:20:04;;;;;;;11.63;3.50;;;;;;;;;;10393973;28;20417;-85
2023/03/01 11:25:12;;;;;;;7.82;3.35;;;;;;;;;;10382485;28;20421;-85
2023/03/01 11:30:21;;;;;;;8.82;3.42;;;;;;;;;;10386373;28;20496;-84
2023/03/01 11:35:27;;;;;;;11.48;3.58;;;;;;;;;;10384453;28;20431;-85
2023/03/01 11:40:34;;;;;;;9.80;3.47;;;;;;;;;;10393792;28;20468;-85
2023/03/01 11:45:56;;;;;;;7.97;3.40;;;;;;;;;;10395451;28;20410;-85
2023/03/01 11:51:06;;;;;;;10.27;3.40;;;;;;;;;;10395710;28;20562;-85
2023/03/01 11:56:17;;;;;;;8.10;3.70;;;;;;;;;;10395695;28;20800;-85
2023/03/01 12:01:32;;;;;;;9.90;3.53;;;;;;;;;;10401835;28;20497;-85
2023/03/01 12:06:57;;;;;;;8.75;3.50;;;;;;;;;;10392679;28;20407;-85
2023/03/01 12:12:19;;;;;;;11.60;3.97;;;;;;;;;;10389831;28;20496;-85
2023/03/01 12:17:40;;;;;;;8.43;3.70;;;;;;;;;;10402058;28;20514;-86
2023/03/01 12:22:58;;;;;;;7.78;3.00;;;;;;;;;;10399076;28;20405;-86
2023/03/01 12:28:24;;;;;;;8.25;3.65;;;;;;;;;;10386783;28;20469;-86
2023/03/01 12:33:39;;;;;;;10.65;3.42;;;;;;;;;;10394336;28;20418;-84
2023/03/01 12:38:47;;;;;;;7.90;3.28;;;;;;;;;;10396988;28;20423;-85
2023/03/01 12:44:05;;;;;;;9.20;4.00;;;;;;;;;;10393659;28;20419;-85
2023/03/01 12:49:11;;;;;;;10.05;3.67;;;;;;;;;;10393348;28;20516;-86
2023/03/01 12:54:20;;;;;;;11.73;3.63;;;;;;;;;;10393916;28;20460;-86
2023/03/01 12:59:28;;;;;;;11.18;3.28;;;;;;;;;;10396312;28;20445;-84
2023/03/01 13:04:44;;;;;;;10.18;3.85;;;;;;;;;;10402211;28;20477;-85
2023/03/01 13:10:01;;;;;;;8.45;3.60;;;;;;;;;;10382119;28;20402;-86
2023/03/01 13:15:03;;;;;;;10.10;3.80;;;;;;;;;;10393047;28;20526;-87
2023/03/01 13:20:14;;;;;;;8.02;4.45;;;;;;;;;;10396009;28;20411;-88
2023/03/01 13:25:20;;;;;;;9.10;4.53;;;;;;;;;;10404652;28;20478;-88
2023/03/01 13:30:43;;;;;;;8.33;4.40;;;;;;;;;;10397395;28;20996;-89
2023/03/01 13:35:46;;;;;;;7.03;4.28;;;;;;;;;;10390889;28;20478;-88
2023/03/01 13:41:01;;;;;;;10.45;4.97;;;;;;;;;;10399567;28;20906;-87
2023/03/01 13:46:10;;;;;;;9.80;4.37;;;;;;;;;;10399650;28;20449;-87
2023/03/01 13:51:13;;;;;;;8.82;4.55;;;;;;;;;;10399427;28;20397;-87
2023/03/01 13:56:20;;;;;;;9.55;4.30;;;;;;;;;;10391786;28;20519;-86
2023/03/01 14:01:25;;;;;;;9.82;4.53;;;;;;;;;;10397932;28;20491;-87
2023/03/01 14:06:29;;;;;;;9.68;4.40;;;;;;;;;;10401091;28;20476;-87
2023/03/01 14:11:49;;;;;;;9.25;4.40;;;;;;;;;;10407588;28;20458;-87
2023/03/01 14:17:01;;;;;;;7.73;4.33;;;;;;;;;;10396356;28;20425;-87
2023/03/01 14:22:14;;;;;;;8.75;4.40;;;;;;;;;;10399092;28;20412;-86
2023/03/01 14:27:18;;;;;;;8.05;4.18;;;;;;;;;;10382293;28;20448;-87
2023/03/01 14:32:21;;;;;;;7.18;3.65;;;;;;;;;;10399181;28;20895;-87
2023/03/01 14:37:26;;;;;;;8.50;4.20;;;;;;;;;;10392186;28;20486;-87
2023/03/01 14:42:35;;;;;;;7.60;4.10;;;;;;;;;;10389800;28;20863;-86
2023/03/01 14:47:39;;;;;;;6.45;4.10;;;;;;;;;;10402191;28;20405;-85
2023/03/01 14:52:43;;;;;;;9.15;4.80;;;;;;;;;;10394937;28;20403;-86
2023/03/01 14:57:49;;;;;;;9.80;5.43;;;;;;;;;;10394259;28;20429;-86
2023/03/01 15:02:53;;;;;;;10.48;5.10;;;;;;;;;;10397003;28;20416;-85
2023/03/01 15:07:56;;;;;;;6.95;4.30;;;;;;;;;;10387068;28;20417;-86
2023/03/01 15:13:11;;;;;;;7.45;5.25;;;;;;;;;;10382090;28;20843;-86
2023/03/01 15:18:19;;;;;;;9.10;5.13;;;;;;;;;;10387795;28;20407;-85
2023/03/01 15:23:26;;;;;;;9.53;4.90;;;;;;;;;;10396697;28;20776;-86
2023/03/01 15:28:33;;;;;;;7.68;4.38;;;;;;;;;;10400782;28;20413;-86
2023/03/01 15:33:37;;;;;;;7.07;4.10;;;;;;;;;;10394461;28;20904;-85
2023/03/01 15:38:54;;;;;;;9.70;4.77;;;;;;;;;;10391298;28;20515;-85
2023/03/01 15:43:57;;;;;;;10.55;4.97;;;;;;;;;;10388485;28;20419;-86
2023/03/01 15:49:01;;;;;;;6.80;4.03;;;;;;;;;;10403384;28;20418;-85
2023/03/01 15:54:07;;;;;;;7.07;3.43;;;;;;;;;;10397818;28;20433;-85
2023/03/01 15:59:13;;;;;;;5.25;2.90;;;;;;;;;;10400371;28;20533;-85
2023/03/01 16:04:22;;;;;;;6.75;3.10;;;;;;;;;;10397858;28;20438;-85
2023/03/01 16:09:25;;;;;;;5.57;2.63;;;;;;;;;;10387434;28;20415;-86
2023/03/01 16:14:29;;;;;;;3.38;2.47;;;;;;;;;;10399084;28;20426;-86
2023/03/01 16:19:30;;;;;;;3.60;2.50;;;;;;;;;;10393687;28;20445;-85
2023/03/01 16:24:32;;;;;;;4.82;3.10;;;;;;;;;;10400800;28;20524;-85
2023/03/01 16:29:36;;;;;;;4.88;2.90;;;;;;;;;;10392470;28;20749;-87
2023/03/01 16:34:37;;;;;;;5.53;3.67;;;;;;;;;;10394264;28;20472;-84
2023/03/01 16:39:39;;;;;;;4.25;3.10;;;;;;;;;;10395816;28;20419;-84
2023/03/01 16:44:43;;;;;;;4.65;3.03;;;;;;;;;;10395219;28;20493;-85
2023/03/01 16:49:45;;;;;;;6.25;4.03;;;;;;;;;;10394490;28;20508;-84
2023/03/01 16:54:47;;;;;;;6.10;3.97;;;;;;;;;;10398767;28;20911;-85
2023/03/01 16:59:52;;;;;;;5.95;4.10;;;;;;;;;;10426405;28;20473;-84
2023/03/01 17:04:55;;;;;;;6.65;4.28;;;;;;;;;;10400285;28;20465;-85
2023/03/01 17:09:57;;;;;;;7.35;4.30;;;;;;;;;;10379427;28;20537;-85
2023/03/01 17:15:00;;;;;;;7.63;4.40;;;;;;;;;;10388393;28;20828;-85
2023/03/01 17:20:02;;;;;;;7.60;4.93;;;;;;;;;;10377597;28;20470;-84
2023/03/01 17:25:05;;;;;;;8.02;5.10;;;;;;;;;;10386217;28;20462;-84
2023/03/01 17:30:13;;;;;;;10.47;6.40;;;;;;;;;;10384891;28;20510;-85
2023/03/01 17:35:15;;;;;;;6.57;4.53;;;;;;;;;;10385746;28;20447;-85
2023/03/01 17:40:18;;;;;;;8.13;4.85;;;;;;;;;;10382590;28;20405;-84
2023/03/01 17:45:21;;;;;;;6.03;4.03;;;;;;;;;;10381895;28;20420;-84
2023/03/01 17:50:23;;;;;;;5.50;3.60;;;;;;;;;;10386133;28;20425;-84
2023/03/01 17:55:25;;;;;;;5.63;3.70;;;;;;;;;;10383576;28;20423;-84
2023/03/01 18:00:29;;;;;;;5.38;3.80;;;;;;;;;;10384315;28;20436;-84
2023/03/01 18:05:32;;;;;;;6.22;4.25;;;;;;;;;;10381161;28;20473;-83
2023/03/01 18:10:36;;;;;;;6.45;3.75;;;;;;;;;;10399221;28;20523;-82
2023/03/01 18:15:39;;;;;;;6.05;3.80;;;;;;;;;;10398289;28;20835;-82
2023/03/01 18:20:41;;;;;;;5.40;3.97;;;;;;;;;;10386524;28;20430;-82
2023/03/01 18:25:43;;;;;;;6.35;3.45;;;;;;;;;;10386725;28;20419;-83
2023/03/01 18:30:46;;;;;;;4.45;3.40;;;;;;;;;;10386067;28;20541;-82
2023/03/01 18:35:49;;;;;;;7.00;4.07;;;;;;;;;;10378015;28;20435;-82
2023/03/01 18:40:52;;;;;;;13.63;6.90;;;;;;;;;;10377247;28;20805;-83
2023/03/01 18:45:58;;;;;;;10.25;5.65;;;;;;;;;;10388072;28;20776;-83
2023/03/01 18:51:07;;;;;;;11.40;6.47;;;;;;;;;;10385865;28;20799;-84
2023/03/01 18:56:10;;;;;;;9.00;4.90;;;;;;;;;;10393079;28;20437;-83
2023/03/01 19:01:16;;;;;;;10.43;4.40;;;;;;;;;;10394297;28;20428;-88
2023/03/01 19:06:18;;;;;;;6.88;3.85;;;;;;;;;;10391919;28;20428;-84
2023/03/01 19:11:20;;;;;;;7.93;3.60;;;;;;;;;;10397156;28;20527;-83
2023/03/01 19:16:26;;;;;;;5.90;3.42;;;;;;;;;;10392253;28;20783;-83
2023/03/01 19:21:30;;;;;;;4.70;3.00;;;;;;;;;;10406117;28;20402;-84
2023/03/01 19:26:32;;;;;;;6.00;3.33;;;;;;;;;;10408893;28;20806;-83
2023/03/01 19:31:35;;;;;;;7.38;4.03;;;;;;;;;;10385884;28;20399;-83
2023/03/01 19:36:37;;;;;;;4.57;2.40;;;;;;;;;;10387845;28;20967;-84
2023/03/01 19:41:40;;;;;;;4.13;2.17;;;;;;;;;;10391772;28;20523;-82
2023/03/01 19:46:43;;;;;;;3.90;2.50;;;;;;;;;;10388081;28;20428;-80
2023/03/01 19:51:45;;;;;;;5.97;3.42;;;;;;;;;;10391161;28;20413;-81
2023/03/01 19:56:47;;;;;;;9.00;4.50;;;;;;;;;;10388734;28;20492;-82
2023/03/01 20:01:51;;;;;;;4.30;3.50;;;;;;;;;;10385147;28;20429;-83
2023/03/01 20:06:52;;;;;;;5.35;3.85;;;;;;;;;;10391817;28;20431;-82
2023/03/01 20:11:54;;;;;;;6.17;4.20;;;;;;;;;;10394603;28;20475;-86
2023/03/01 20:16:58;;;;;;;7.43;4.43;;;;;;;;;;10395569;28;20466;-85
2023/03/01 20:22:00;;;;;;;5.82;4.18;;;;;;;;;;10390096;28;20856;-84
2023/03/01 20:27:02;;;;;;;8.68;4.68;;;;;;;;;;10390504;28;20907;-85
2023/03/01 20:32:05;;;;;;;9.43;4.93;;;;;;;;;;10396880;28;20476;-85
2023/03/01 20:37:07;;;;;;;8.95;5.30;;;;;;;;;;10399285;28;20421;-84
2023/03/01 20:42:09;;;;;;;10.53;5.47;;;;;;;;;;10395059;28;20510;-85
2023/03/01 20:47:19;;;;;;;12.50;7.38;;;;;;;;;;10389865;28;21092;-84
2023/03/01 20:52:20;;;;;;;9.75;6.05;;;;;;;;;;10388802;28;20441;-85
2023/03/01 20:57:22;;;;;;;7.70;5.33;;;;;;;;;;10392812;28;20422;-85
2023/03/01 21:02:26;;;;;;;9.07;4.90;;;;;;;;;;10396699;28;20507;-84
2023/03/01 21:07:28;;;;;;;8.52;4.80;;;;;;;;;;10394228;28;20453;-84
2023/03/01 21:12:30;;;;;;;9.57;5.20;;;;;;;;;;10388257;28;20547;-84
2023/03/01 21:17:34;;;;;;;11.57;5.27;;;;;;;;;;10385803;28;20518;-84
2023/03/01 21:22:36;;;;;;;10.55;5.32;;;;;;;;;;10394540;28;20466;-84
2023/03/01 21:27:39;;;;;;;8.25;4.53;;;;;;;;;;10388064;28;20429;-83
2023/03/01 21:32:42;;;;;;;10.47;5.30;;;;;;;;;;10382910;28;20557;-84
2023/03/01 21:37:44;;;;;;;8.73;5.15;;;;;;;;;;10389967;28;20811;-84
2023/03/01 21:42:48;;;;;;;8.70;4.90;;;;;;;;;;10389515;28;20509;-84
2023/03/01 21:47:51;;;;;;;8.85;5.20;;;;;;;;;;10384968;28;20418;-84
2023/03/01 21:52:53;;;;;;;8.90;4.75;;;;;;;;;;10390844;28;20656;-84
2023/03/01 21:57:55;;;;;;;9.32;5.35;;;;;;;;;;10387872;28;20517;-84
2023/03/01 22:02:58;;;;;;;9.68;5.57;;;;;;;;;;10384905;28;20431;-84
2023/03/01 22:08:01;;;;;;;8.15;5.00;;;;;;;;;;10392914;28;20550;-84
2023/03/01 22:13:03;;;;;;;8.17;4.70;;;;;;;;;;10387752;28;20477;-84
2023/03/01 22:18:06;;;;;;;9.18;5.20;;;;;;;;;;10391885;28;20546;-84
2023/03/01 22:23:08;;;;;;;9.17;5.43;;;;;;;;;;10394340;28;20448;-84
2023/03/01 22:28:10;;;;;;;8.00;4.90;;;;;;;;;;10387684;28;20409;-86
2023/03/01 22:33:13;;;;;;;8.50;4.70;;;;;;;;;;10397850;28;20773;-85
2023/03/01 22:38:15;;;;;;;9.13;4.27;;;;;;;;;;10384905;28;20496;-86
2023/03/01 22:43:17;;;;;;;6.90;4.45;;;;;;;;;;10393767;28;20458;-86
2023/03/01 22:48:20;;;;;;;6.17;4.60;;;;;;;;;;10389533;28;20417;-84
2023/03/01 22:53:22;;;;;;;8.13;5.15;;;;;;;;;;10388352;28;20458;-85
2023/03/01 22:58:24;;;;;;;7.53;4.30;;;;;;;;;;10390453;28;20427;-85
2023/03/01 23:03:27;;;;;;;6.63;4.85;;;;;;;;;;10394361;28;20412;-85
2023/03/01 23:08:29;;;;;;;6.93;4.10;;;;;;;;;;10391989;28;20528;-84
2023/03/01 23:13:30;;;;;;;7.43;4.70;;;;;;;;;;10395019;28;20419;-86
2023/03/01 23:18:34;;;;;;;6.80;3.92;;;;;;;;;;10391202;28;20506;-85
2023/03/01 23:23:35;;;;;;;6.57;4.00;;;;;;;;;;10399841;28;20526;-86
2023/03/01 23:28:39;;;;;;;6.10;4.10;;;;;;;;;;10392534;28;20478;-86
2023/03/01 23:33:44;;;;;;;5.95;3.97;;;;;;;;;;10401181;28;20971;-85
2023/03/01 23:38:46;;;;;;;5.82;4.00;;;;;;;;;;10395739;28;20432;-86
2023/03/01 23:43:49;;;;;;;7.82;4.10;;;;;;;;;;10402781;28;20426;-85
2023/03/01 23:48:53;;;;;;;6.97;4.10;;;;;;;;;;10394327;28;20401;-85
2023/03/01 23:53:58;;;;;;;5.55;3.33;;;;;;;;;;10399297;28;20436;-84
2023/03/01 23:59:02;;;;;;;6.35;4.00;;;;;;;;;;10392609;28;20881;-84
